Time;durP1;ratioP1;P1;durP2;ratioP2;P2;SDS_P1;SDS_P2;PMS_P1;PMS_P2;Temp;Humidity;BMP_temperature;BMP_pressure;BME280_temperature;BME280_humidity;BME280_pressure;Samples;Min_cycle;Max_cycle;Signal;HPM_P1;HPM_P2
2022/12/23 00:00:40;;;;;;;10.80;2.40;;;;;;;11.57;100.00;99486.63;5079299;28;20316;-63
2022/12/23 00:03:08;;;;;;;9.53;2.50;;;;;;;11.57;100.00;99486.63;5079241;28;20298;-66
2022/12/23 00:05:37;;;;;;;10.43;2.40;;;;;;;11.61;100.00;99487.91;5083803;28;20238;-66
2022/12/23 00:08:06;;;;;;;9.57;2.30;;;;;;;11.63;100.00;99485.91;5082317;28;20650;-65
2022/12/23 00:10:34;;;;;;;9.30;2.30;;;;;;;11.66;100.00;99484.72;5080734;28;20302;-66
2022/12/23 00:16:05;;;;;;;11.27;2.00;;;;;;;11.57;100.00;99486.63;5000456;28;20294;-66
2022/12/23 00:18:34;;;;;;;11.70;2.80;;;;;;;11.57;100.00;99494.59;4999522;28;20209;-66
2022/12/23 00:21:03;;;;;;;8.67;3.03;;;;;;;11.61;100.00;99484.41;5034738;28;20305;-65
2022/12/23 00:23:37;;;;;;;9.50;2.43;;;;;;;11.61;100.00;99487.91;5080649;28;20253;-65
2022/12/23 00:26:06;;;;;;;11.10;2.03;;;;;;;11.64;100.00;99487.56;5082276;28;20279;-66
2022/12/23 00:28:34;;;;;;;9.43;1.70;;;;;;;11.66;100.00;99480.25;5074908;28;20686;-66
2022/12/23 00:31:05;;;;;;;11.03;2.13;;;;;;;11.64;100.00;99476.94;5094219;27;20633;-66
2022/12/23 00:33:36;;;;;;;6.73;1.87;;;;;;;11.62;100.00;99478.94;5101913;28;20225;-66
2022/12/23 00:36:11;;;;;;;10.17;2.00;;;;;;;11.65;100.00;99483.06;5098926;28;20206;-66
2022/12/23 00:44:09;;;;;;;9.17;1.87;;;;;;;11.63;100.00;99475.28;5102558;27;20198;-66
2022/12/23 00:46:39;;;;;;;8.27;1.70;;;;;;;11.62;100.00;99481.59;5106018;27;20248;-65
2022/12/23 00:51:54;;;;;;;8.43;1.93;;;;;;;11.69;100.00;99487.88;5078028;28;20210;-65
2022/12/23 00:54:22;;;;;;;8.67;1.80;;;;;;;11.64;100.00;99482.25;5104949;28;20253;-65
2022/12/23 00:56:50;;;;;;;7.63;2.03;;;;;;;11.61;100.00;99482.59;5104485;28;20240;-65
2022/12/23 00:59:18;;;;;;;8.87;1.80;;;;;;;11.70;100.00;99481.53;5101137;27;20659;-65
2022/12/23 01:07:19;;;;;;;9.20;2.40;;;;;;;11.70;100.00;99504.59;5100467;28;20205;-64
2022/12/23 01:09:47;;;;;;;7.97;2.43;;;;;;;11.65;100.00;99499.84;5098219;28;20267;-65
2022/12/23 01:12:15;;;;;;;5.73;1.50;;;;;;;11.66;100.00;99509.44;5098923;28;20336;-64
2022/12/23 01:14:42;;;;;;;8.90;2.27;;;;;;;11.66;100.00;99501.50;5099626;28;20214;-65
2022/12/23 01:17:11;;;;;;;5.90;2.10;;;;;;;11.63;100.00;99507.16;5098627;28;20202;-64
2022/12/23 01:19:39;;;;;;;6.53;2.37;;;;;;;11.58;100.00;99509.53;5096330;28;20874;-65
2022/12/23 01:22:07;;;;;;;8.17;2.60;;;;;;;11.57;100.00;99510.53;5097973;28;20578;-65
2022/12/23 01:24:35;;;;;;;10.83;2.60;;;;;;;11.65;100.00;99514.94;5099704;28;20198;-65
2022/12/23 01:27:02;;;;;;;5.57;2.37;;;;;;;11.61;100.00;99522.41;5100350;28;20216;-65
2022/12/23 01:29:30;;;;;;;6.47;2.60;;;;;;;11.59;100.00;99531.59;5101443;28;20233;-65
2022/12/23 01:31:58;;;;;;;6.93;2.43;;;;;;;11.58;100.00;99532.59;5097935;28;20214;-65
2022/12/23 01:34:28;;;;;;;7.27;2.17;;;;;;;11.61;100.00;99545.50;5097154;28;20202;-65
2022/12/23 01:37:03;;;;;;;6.57;2.27;;;;;;;11.62;100.00;99547.16;5100128;28;20215;-64
2022/12/23 01:39:31;;;;;;;5.73;1.67;;;;;;;11.67;100.00;99553.59;5104097;28;20659;-65
2022/12/23 01:44:54;;;;;;;5.93;2.20;;;;;;;11.76;100.00;99567.66;5098314;28;20303;-64
2022/12/23 01:47:26;;;;;;;6.37;2.00;;;;;;;11.81;100.00;99570.59;5097338;28;20247;-65
2022/12/23 01:50:01;;;;;;;4.17;1.90;;;;;;;11.85;100.00;99573.75;5100075;28;20216;-65
2022/12/23 01:52:30;;;;;;;10.00;2.53;;;;;;;11.90;100.00;99582.00;5100887;28;20237;-64
2022/12/23 01:54:58;;;;;;;7.40;2.10;;;;;;;11.90;100.00;99582.81;5098202;28;20310;-65
2022/12/23 01:57:26;;;;;;;3.67;1.60;;;;;;;11.98;100.00;99589.91;5100609;28;20324;-65
2022/12/23 02:05:29;;;;;;;5.27;1.70;;;;;;;12.16;100.00;99586.94;5100488;28;20206;-65
2022/12/23 02:11:06;;;;;;;4.07;1.80;;;;;;;12.18;100.00;99584.94;5098919;28;20225;-65
2022/12/23 02:16:15;;;;;;;4.50;2.50;;;;;;;12.20;100.00;99597.03;5095464;28;20663;-65
2022/12/23 02:16:53;;;;;;;4.17;2.27;;;;;;;12.20;100.00;99594.38;5102036;27;20211;-65
2022/12/23 02:19:40;;;;;;;6.17;1.90;;;;;;;12.23;100.00;99609.13;5104243;27;20212;-65
2022/12/23 02:22:31;;;;;;;3.00;1.97;;;;;;;12.26;100.00;99614.91;5101641;27;20233;-65
2022/12/23 02:25:36;;;;;;;5.00;2.40;;;;;;;12.34;99.74;99624.66;5103682;27;20206;-65
2022/12/23 02:28:30;;;;;;;2.53;1.70;;;;;;;12.37;98.91;99633.09;5056341;28;20301;-65
2022/12/23 02:31:08;;;;;;;6.00;2.30;;;;;;;12.40;98.59;99632.72;5089276;27;20351;-65
2022/12/23 02:33:47;;;;;;;2.33;1.70;;;;;;;12.43;98.39;99645.66;5085523;28;20203;-65
2022/12/23 02:36:29;;;;;;;5.30;1.83;;;;;;;12.42;98.28;99651.97;5083397;28;20214;-64
2022/12/23 02:39:06;;;;;;;4.40;2.13;;;;;;;12.40;98.10;99648.66;5086809;28;20699;-64
2022/12/23 02:41:42;;;;;;;4.07;2.00;;;;;;;12.29;99.17;99649.13;5087352;28;20202;-64
2022/12/23 02:44:18;;;;;;;3.00;1.80;;;;;;;12.25;99.73;99653.13;5085530;28;20229;-64
2022/12/23 02:46:51;;;;;;;4.67;2.40;;;;;;;12.29;99.30;99654.44;5086621;28;20675;-65
2022/12/23 02:49:25;;;;;;;4.03;2.10;;;;;;;12.32;98.82;99654.06;5087034;28;20214;-65
2022/12/23 02:51:57;;;;;;;5.33;2.33;;;;;;;12.29;98.71;99665.06;5088340;28;20209;-64
2022/12/23 02:54:30;;;;;;;7.07;2.00;;;;;;;12.24;98.08;99672.72;5081970;28;20618;-65
2022/12/23 02:57:03;;;;;;;3.90;1.97;;;;;;;12.22;97.75;99674.78;5079769;28;20244;-64
2022/12/23 02:59:36;;;;;;;5.53;2.37;;;;;;;12.18;97.62;99678.78;5081860;28;20319;-64
2022/12/23 03:02:05;;;;;;;6.20;2.20;;;;;;;12.18;97.11;99685.91;5083591;28;20322;-65
2022/12/23 03:04:33;;;;;;;7.13;3.33;;;;;;;12.15;97.35;99678.28;5073381;28;20234;-64
2022/12/23 03:07:02;;;;;;;5.50;2.90;;;;;;;12.11;96.61;99684.97;5071527;28;20199;-64
2022/12/23 03:09:44;;;;;;;5.90;2.97;;;;;;;12.07;97.01;99695.13;5072481;28;21194;-64
2022/12/23 03:12:22;;;;;;;5.23;2.43;;;;;;;12.07;96.54;99700.44;5083857;28;20225;-64
2022/12/23 03:15:00;;;;;;;5.70;2.67;;;;;;;12.06;96.11;99693.47;5082003;28;20213;-64
2022/12/23 03:17:41;;;;;;;3.93;1.83;;;;;;;11.99;95.88;99697.84;5082118;28;20230;-64
2022/12/23 03:20:15;;;;;;;3.27;1.80;;;;;;;11.97;95.97;99705.16;5082580;28;20301;-64
2022/12/23 03:22:50;;;;;;;4.77;1.90;;;;;;;11.89;95.91;99708.69;5082480;28;20225;-64
2022/12/23 03:25:23;;;;;;;3.70;1.87;;;;;;;11.87;96.28;99704.56;5080509;28;20210;-65
2022/12/23 03:27:58;;;;;;;3.80;1.70;;;;;;;11.87;96.20;99705.41;5079265;28;20211;-65
2022/12/23 03:30:27;;;;;;;3.33;1.60;;;;;;;11.89;96.08;99707.84;5094733;28;20670;-65
2022/12/23 03:33:01;;;;;;;2.90;1.63;;;;;;;11.89;96.01;99713.16;5098567;28;20247;-65
2022/12/23 03:35:36;;;;;;;3.20;1.50;;;;;;;11.90;95.44;99710.34;5107907;28;20304;-64
2022/12/23 03:38:05;;;;;;;2.70;1.43;;;;;;;11.94;95.08;99716.16;5102132;27;20288;-65
2022/12/23 03:40:37;;;;;;;2.20;1.40;;;;;;;11.97;94.35;99737.03;5098026;27;20293;-64
2022/12/23 03:43:09;;;;;;;2.60;1.30;;;;;;;11.99;94.05;99735.84;5094041;27;20218;-66
2022/12/23 03:45:42;;;;;;;2.53;1.30;;;;;;;12.03;94.01;99739.00;5100787;27;20210;-65
2022/12/23 03:48:20;;;;;;;2.70;1.20;;;;;;;12.05;93.79;99742.28;5103814;27;20709;-66
2022/12/23 03:50:54;;;;;;;4.60;1.37;;;;;;;12.07;93.34;99734.97;5099151;27;20206;-66
2022/12/23 03:53:27;;;;;;;2.83;1.30;;;;;;;12.06;92.78;99733.31;5098532;27;20210;-66
2022/12/23 03:55:59;;;;;;;2.20;1.40;;;;;;;11.98;92.53;99744.84;5099636;27;20234;-65
2022/12/23 03:58:33;;;;;;;3.27;1.77;;;;;;;11.99;92.80;99750.97;5099130;27;20202;-66
2022/12/23 04:01:09;;;;;;;3.23;1.70;;;;;;;11.90;92.52;99752.00;5098964;27;20225;-66
2022/12/23 04:03:48;;;;;;;3.10;1.57;;;;;;;11.84;93.14;99758.88;5097034;27;20259;-66
2022/12/23 04:06:20;;;;;;;2.53;1.40;;;;;;;11.79;93.00;99768.31;5099001;27;20224;-65
2022/12/23 04:08:49;;;;;;;3.10;1.50;;;;;;;11.82;93.18;99760.03;5102969;27;20293;-65
2022/12/23 04:11:17;;;;;;;2.73;1.53;;;;;;;11.87;93.05;99766.50;5099533;27;20202;-65
2022/12/23 04:13:47;;;;;;;3.40;1.70;;;;;;;11.84;93.55;99773.97;5100644;27;20253;-65
2022/12/23 04:16:15;;;;;;;3.23;1.50;;;;;;;11.84;93.43;99766.00;5101510;27;20234;-65
2022/12/23 04:18:44;;;;;;;2.53;1.47;;;;;;;11.86;93.62;99771.97;5101102;27;20296;-65
2022/12/23 04:21:12;;;;;;;2.50;1.20;;;;;;;11.87;94.26;99758.53;5101355;27;20205;-65
2022/12/23 04:23:40;;;;;;;2.50;1.27;;;;;;;11.88;94.36;99748.69;5098883;27;20576;-65
2022/12/23 04:26:07;;;;;;;3.30;1.30;;;;;;;11.87;94.66;99755.03;5100955;28;20659;-65
2022/12/23 04:28:35;;;;;;;6.77;1.60;;;;;;;11.91;94.66;99761.66;5097939;28;20792;-65
2022/12/23 04:31:03;;;;;;;4.43;1.50;;;;;;;11.95;94.12;99765.63;5102267;27;20238;-65
2022/12/23 04:33:31;;;;;;;4.00;1.30;;;;;;;11.96;94.06;99762.75;5103252;28;20275;-65
2022/12/23 04:36:00;;;;;;;2.37;0.97;;;;;;;11.96;93.72;99775.25;5103514;27;20206;-65
2022/12/23 04:38:28;;;;;;;4.03;1.43;;;;;;;11.86;95.04;99771.97;5099093;28;20246;-65
2022/12/23 04:40:56;;;;;;;3.07;1.47;;;;;;;11.87;95.55;99768.31;5102364;28;20324;-65
2022/12/23 04:43:24;;;;;;;3.47;1.70;;;;;;;11.85;95.94;99765.00;5102396;28;20278;-65
2022/12/23 04:45:52;;;;;;;3.43;1.70;;;;;;;11.84;96.23;99766.00;5092986;28;20202;-65
2022/12/23 04:48:20;;;;;;;4.83;1.77;;;;;;;11.85;96.22;99770.31;5099791;28;20214;-65
2022/12/23 04:50:47;;;;;;;3.57;2.10;;;;;;;11.89;96.21;99766.28;5098070;28;20220;-65
2022/12/23 04:53:16;;;;;;;4.00;1.80;;;;;;;11.91;95.57;99766.97;5100988;28;20679;-65
2022/12/23 04:55:50;;;;;;;10.80;1.40;;;;;;;11.88;95.91;99761.97;5103279;28;20659;-66
2022/12/23 04:58:20;;;;;;;2.83;1.50;;;;;;;11.91;95.75;99754.50;5101619;28;20292;-65
2022/12/23 05:00:48;;;;;;;2.57;1.10;;;;;;;11.87;96.02;99753.22;5101565;28;20210;-65
2022/12/23 05:03:16;;;;;;;2.40;1.30;;;;;;;11.93;95.94;99767.63;5090665;28;20257;-65
2022/12/23 05:05:44;;;;;;;3.83;1.60;;;;;;;11.96;95.45;99761.97;5102617;27;20209;-65
2022/12/23 05:08:12;;;;;;;3.07;1.63;;;;;;;11.99;95.04;99770.41;5100036;27;20680;-65
2022/12/23 05:10:44;;;;;;;3.13;1.53;;;;;;;11.98;94.92;99787.34;5101820;28;20562;-66
2022/12/23 05:13:12;;;;;;;1.97;1.00;;;;;;;11.93;95.24;99791.53;5100206;28;20228;-65
2022/12/23 05:15:40;;;;;;;4.13;1.20;;;;;;;11.87;95.79;99784.25;5100969;28;20593;-65
2022/12/23 05:18:07;;;;;;;4.37;1.30;;;;;;;11.87;96.31;99790.41;5100762;28;20317;-65
2022/12/23 05:20:35;;;;;;;3.80;2.00;;;;;;;11.88;96.36;99797.34;5092919;28;20213;-65
2022/12/23 05:23:03;;;;;;;3.50;2.03;;;;;;;11.83;97.26;99799.69;5077808;28;20242;-65
2022/12/23 05:25:32;;;;;;;4.57;1.80;;;;;;;11.88;97.08;99791.19;5089540;28;20205;-65
2022/12/23 05:28:01;;;;;;;4.10;1.67;;;;;;;11.87;97.02;99794.88;5102959;28;20229;-65
2022/12/23 05:30:29;;;;;;;2.93;1.37;;;;;;;11.87;97.39;99794.88;5094288;28;20233;-65
2022/12/23 05:32:57;;;;;;;2.60;1.17;;;;;;;11.88;97.56;99785.88;5096285;28;20205;-66
2022/12/23 05:35:27;;;;;;;2.20;1.10;;;;;;;11.91;97.43;99796.19;5103847;28;20209;-66
2022/12/23 05:37:55;;;;;;;2.13;0.90;;;;;;;11.89;97.95;99785.72;5100119;28;20214;-65
2022/12/23 05:40:23;;;;;;;5.00;1.20;;;;;;;11.92;97.65;99788.03;5093738;28;20210;-65
2022/12/23 05:42:55;;;;;;;1.30;0.70;;;;;;;11.96;97.78;99780.56;5097749;28;20220;-65
2022/12/23 05:45:24;;;;;;;1.57;0.80;;;;;;;11.96;97.41;99783.22;5100045;28;20210;-65
2022/12/23 05:47:52;;;;;;;3.30;1.30;;;;;;;11.98;97.44;99786.50;5098135;28;20216;-65
2022/12/23 05:50:20;;;;;;;2.30;1.40;;;;;;;12.11;96.44;99780.66;5098782;28;20647;-65
2022/12/23 05:52:48;;;;;;;2.50;1.13;;;;;;;12.10;95.62;99779.00;5094070;28;20214;-65
2022/12/23 05:55:15;;;;;;;2.93;1.23;;;;;;;12.01;96.47;99791.50;5098342;27;20301;-65
2022/12/23 05:57:43;;;;;;;3.77;1.63;;;;;;;11.89;97.16;99784.88;5104155;27;20207;-65
2022/12/23 06:00:12;;;;;;;1.77;0.63;;;;;;;11.89;98.08;99784.88;5107942;27;20206;-65
2022/12/23 06:02:41;;;;;;;1.10;0.50;;;;;;;11.92;98.06;99792.53;5104737;27;20231;-65
2022/12/23 06:05:12;;;;;;;1.80;0.40;;;;;;;11.99;98.34;99799.63;5086762;28;20217;-65
2022/12/23 06:07:40;;;;;;;0.57;0.30;;;;;;;12.07;97.81;99788.97;5099945;27;20306;-65
2022/12/23 06:10:10;;;;;;;1.47;0.30;;;;;;;12.14;98.03;99786.41;5093544;27;20206;-65
2022/12/23 06:12:38;;;;;;;0.93;0.67;;;;;;;12.18;97.97;99787.75;5092683;27;20352;-65
2022/12/23 06:15:07;;;;;;;1.50;0.40;;;;;;;12.23;98.40;99789.88;5104103;27;20210;-65
2022/12/23 06:17:35;;;;;;;0.70;0.40;;;;;;;12.27;98.94;99781.38;5093859;27;20238;-65
2022/12/23 06:20:06;;;;;;;1.20;0.57;;;;;;;12.31;98.28;99785.31;5093549;27;20209;-65
2022/12/23 06:22:33;;;;;;;1.20;0.47;;;;;;;12.32;97.59;99789.63;5086996;27;22062;-65
2022/12/23 06:25:01;;;;;;;2.20;0.50;;;;;;;12.34;96.99;99795.63;5102426;27;20230;-64
2022/12/23 06:27:29;;;;;;;2.20;0.80;;;;;;;12.33;96.70;99796.63;5090068;27;20223;-64
2022/12/23 06:29:56;;;;;;;3.17;1.47;;;;;;;12.24;97.09;99797.66;5096210;28;20237;-65
2022/12/23 06:32:24;;;;;;;5.60;3.13;;;;;;;12.11;98.07;99808.06;5094375;28;20578;-65
2022/12/23 06:34:52;;;;;;;6.23;3.10;;;;;;;12.02;98.88;99809.91;5101174;28;20195;-64
2022/12/23 06:37:21;;;;;;;5.27;2.90;;;;;;;12.04;98.53;99802.63;5104966;27;22059;-65
2022/12/23 06:39:49;;;;;;;4.93;2.37;;;;;;;12.05;97.44;99809.56;5105826;27;20229;-65
2022/12/23 06:42:17;;;;;;;4.77;2.50;;;;;;;12.00;96.94;99816.41;5102001;27;20210;-65
2022/12/23 06:44:45;;;;;;;8.20;2.20;;;;;;;11.94;97.31;99812.63;5094275;28;20249;-66
2022/12/23 06:47:13;;;;;;;3.13;1.83;;;;;;;11.96;97.11;99812.44;5104785;28;20297;-64
2022/12/23 06:49:41;;;;;;;2.83;1.37;;;;;;;11.93;97.54;99810.97;5107232;27;20224;-65
2022/12/23 06:52:08;;;;;;;3.07;1.30;;;;;;;11.92;97.66;99806.63;5099377;28;20255;-65
2022/12/23 06:54:38;;;;;;;4.90;1.30;;;;;;;12.10;96.52;99811.72;5102717;27;20446;-61
2022/12/23 06:57:05;;;;;;;6.47;1.77;;;;;;;11.95;96.45;99821.41;5105244;28;20234;-60
2022/12/23 06:59:33;;;;;;;4.37;1.30;;;;;;;11.87;96.91;99822.28;5093493;28;20246;-60
2022/12/23 07:02:01;;;;;;;2.40;1.13;;;;;;;11.88;96.65;99826.56;5103605;27;20298;-60
2022/12/23 07:04:29;;;;;;;2.67;1.20;;;;;;;11.88;96.86;99807.13;5103154;27;20735;-60
2022/12/23 07:06:57;;;;;;;3.20;1.10;;;;;;;11.86;96.62;99803.84;5101659;27;20245;-60
2022/12/23 07:09:25;;;;;;;5.67;1.30;;;;;;;11.81;96.59;99799.03;5089274;27;20218;-61
2022/12/23 07:11:54;;;;;;;2.53;1.30;;;;;;;11.77;96.97;99811.03;5107770;27;20792;-61
2022/12/23 07:14:22;;;;;;;1.70;1.10;;;;;;;11.72;97.25;99797.38;5084074;27;20844;-61
2022/12/23 07:16:49;;;;;;;2.33;1.10;;;;;;;11.71;97.09;99795.72;5092459;28;20706;-60
2022/12/23 07:19:17;;;;;;;2.73;1.50;;;;;;;11.67;97.21;99794.44;5102602;27;20214;-61
2022/12/23 07:21:45;;;;;;;5.73;1.57;;;;;;;11.65;96.84;99802.56;5106896;28;20305;-61
2022/12/23 07:24:13;;;;;;;3.93;2.37;;;;;;;11.62;97.52;99794.94;5095780;28;20240;-60
2022/12/23 07:26:41;;;;;;;5.57;2.30;;;;;;;11.61;97.28;99798.56;5095897;28;20214;-61
2022/12/23 07:29:10;;;;;;;3.07;1.83;;;;;;;11.60;97.76;99799.59;5106854;27;20226;-61
2022/12/23 07:31:39;;;;;;;5.23;2.03;;;;;;;11.68;97.54;99810.19;5109882;27;20206;-60
2022/12/23 07:34:08;;;;;;;5.90;2.30;;;;;;;11.72;97.09;99812.50;5097365;28;20215;-61
2022/12/23 07:36:36;;;;;;;6.13;2.47;;;;;;;11.72;97.34;99826.59;5092721;28;20297;-61
2022/12/23 07:39:03;;;;;;;5.10;2.03;;;;;;;11.76;97.37;99840.41;5095820;28;20216;-61
2022/12/23 07:41:31;;;;;;;5.80;1.80;;;;;;;11.79;97.42;99853.31;5098331;28;20212;-61
2022/12/23 07:43:59;;;;;;;4.10;1.97;;;;;;;11.85;97.03;99855.31;5096961;27;20206;-61
2022/12/23 07:46:28;;;;;;;5.93;2.93;;;;;;;11.87;97.17;99848.84;5105305;27;20214;-60
2022/12/23 07:48:56;;;;;;;6.30;3.27;;;;;;;11.91;96.75;99855.47;5105913;28;20199;-59
2022/12/23 07:51:24;;;;;;;3.17;1.67;;;;;;;11.93;97.15;99847.31;5105543;27;20205;-61
2022/12/23 07:53:52;;;;;;;2.87;1.10;;;;;;;11.98;96.35;99852.94;5109617;27;20210;-61
2022/12/23 07:56:20;;;;;;;1.97;1.10;;;;;;;11.98;96.53;99855.59;5099776;28;20773;-61
2022/12/23 07:58:49;;;;;;;3.43;1.13;;;;;;;11.99;96.98;99843.97;5101449;27;20224;-61
2022/12/23 08:01:18;;;;;;;2.97;1.40;;;;;;;12.02;97.16;99846.28;5104735;27;20332;-62
2022/12/23 08:03:47;;;;;;;11.70;1.80;;;;;;;12.02;97.50;99841.81;5096232;28;20268;-62
2022/12/23 08:06:16;;;;;;;3.27;1.47;;;;;;;12.10;97.40;99848.91;5090815;28;20241;-63
2022/12/23 08:08:45;;;;;;;5.87;2.13;;;;;;;12.17;96.86;99843.72;5090771;28;20211;-62
2022/12/23 08:11:15;;;;;;;3.60;1.20;;;;;;;12.24;95.73;99845.50;5101652;28;20561;-62
2022/12/23 08:13:45;;;;;;;3.90;1.30;;;;;;;12.19;96.23;99850.53;5099831;27;20269;-61
2022/12/23 08:16:12;;;;;;;4.53;1.53;;;;;;;12.23;95.78;99846.50;5100083;27;20202;-61
2022/12/23 08:18:41;;;;;;;9.00;1.80;;;;;;;12.24;95.72;99845.50;5104811;28;20230;-61
2022/12/23 08:21:13;;;;;;;5.03;1.60;;;;;;;12.26;95.78;99832.06;5093984;27;20216;-60
2022/12/23 08:23:42;;;;;;;4.13;1.70;;;;;;;12.30;95.67;99828.88;5104182;27;20667;-62
2022/12/23 08:26:11;;;;;;;5.80;1.80;;;;;;;12.33;94.57;99833.00;5101217;27;20682;-61
2022/12/23 08:28:41;;;;;;;3.23;1.43;;;;;;;12.30;94.67;99838.69;5096050;27;20645;-61
2022/12/23 08:31:11;;;;;;;6.90;2.07;;;;;;;12.33;94.71;99830.34;5095718;28;20260;-61
2022/12/23 08:33:40;;;;;;;3.70;1.90;;;;;;;12.29;95.22;99834.38;5079275;28;20207;-62
2022/12/23 08:36:10;;;;;;;2.60;1.70;;;;;;;12.34;95.06;99846.13;5092440;28;20225;-61
2022/12/23 08:38:39;;;;;;;5.83;2.00;;;;;;;12.37;95.05;99844.97;5099219;28;20238;-60
2022/12/23 08:41:09;;;;;;;6.00;1.93;;;;;;;12.38;94.89;99847.44;5089183;28;20305;-61
2022/12/23 08:43:37;;;;;;;4.33;2.47;;;;;;;12.39;94.71;99854.44;5093237;28;20348;-61
2022/12/23 08:46:06;;;;;;;8.13;2.70;;;;;;;12.39;95.17;99848.28;5098331;27;20287;-61
2022/12/23 08:48:34;;;;;;;4.53;2.57;;;;;;;12.41;94.63;99849.75;5074701;28;20283;-61
2022/12/23 08:51:04;;;;;;;4.17;2.40;;;;;;;12.46;94.52;99853.72;5087099;28;20198;-61
2022/12/23 08:53:33;;;;;;;4.33;2.30;;;;;;;12.51;94.14;99843.38;5103163;27;20703;-61
2022/12/23 08:56:04;;;;;;;4.53;2.70;;;;;;;12.54;93.64;99841.19;5102199;27;20202;-61
2022/12/23 08:58:35;;;;;;;8.60;3.97;;;;;;;12.55;93.59;99842.84;5104287;27;20232;-62
2022/12/23 09:01:04;;;;;;;6.33;3.40;;;;;;;12.59;93.52;99840.66;5102173;27;20202;-62
2022/12/23 09:03:32;;;;;;;4.10;2.57;;;;;;;12.61;93.11;99854.63;5101380;27;20207;-63
2022/12/23 09:06:04;;;;;;;6.50;2.47;;;;;;;12.56;93.11;99859.66;5101279;27;20231;-63
2022/12/23 09:08:32;;;;;;;4.00;2.30;;;;;;;12.53;93.53;99862.66;5084023;28;20290;-62
2022/12/23 09:11:01;;;;;;;3.97;1.70;;;;;;;12.57;93.85;99858.66;5090481;28;20254;-60
2022/12/23 09:13:30;;;;;;;3.40;1.67;;;;;;;12.56;93.61;99851.66;5093805;28;20228;-58
2022/12/23 09:16:02;;;;;;;5.57;2.10;;;;;;;12.57;93.63;99856.00;5096080;28;20244;-59
2022/12/23 09:18:30;;;;;;;4.33;1.90;;;;;;;12.63;93.12;99863.25;5101697;28;20215;-60
2022/12/23 09:20:58;;;;;;;3.43;1.90;;;;;;;12.68;92.51;99867.03;5100044;28;20241;-61
2022/12/23 09:23:27;;;;;;;4.83;1.90;;;;;;;12.70;91.84;99862.38;5102109;28;20217;-59
2022/12/23 09:25:54;;;;;;;8.40;4.87;;;;;;;12.70;91.23;99851.72;5092093;28;20231;-60
2022/12/23 09:28:23;;;;;;;5.10;2.30;;;;;;;12.68;91.49;99847.59;5096162;27;20325;-61
2022/12/23 09:30:53;;;;;;;5.07;2.53;;;;;;;12.67;92.13;99848.59;5086034;28;20277;-61
2022/12/23 09:33:20;;;;;;;4.63;1.67;;;;;;;12.64;92.15;99843.63;5106839;27;20205;-61
2022/12/23 09:35:48;;;;;;;5.80;2.03;;;;;;;12.64;92.47;99846.28;5104365;28;20695;-61
2022/12/23 09:38:16;;;;;;;3.60;1.40;;;;;;;12.63;92.93;99847.28;5103768;27;20214;-61
2022/12/23 09:40:44;;;;;;;4.77;1.60;;;;;;;12.65;92.64;99832.00;5103748;27;20198;-61
2022/12/23 09:43:24;;;;;;;4.20;1.47;;;;;;;12.67;92.59;99836.09;5110621;27;20211;-61
2022/12/23 09:46:04;;;;;;;2.77;1.50;;;;;;;12.70;92.90;99840.25;5107973;27;20245;-60
2022/12/23 09:48:36;;;;;;;3.80;1.60;;;;;;;12.73;92.75;99846.06;5111415;27;20293;-60
2022/12/23 09:51:05;;;;;;;3.40;1.77;;;;;;;12.74;93.07;99831.75;5109242;27;20206;-60
2022/12/23 09:53:45;;;;;;;6.07;1.73;;;;;;;12.73;93.37;99826.63;5109207;27;20221;-60
2022/12/23 09:56:20;;;;;;;3.03;1.90;;;;;;;12.74;93.46;99830.94;5110783;27;20316;-60
2022/12/23 09:58:55;;;;;;;4.53;2.10;;;;;;;12.74;93.79;99818.47;5104007;28;20229;-60
2022/12/23 10:01:31;;;;;;;4.90;1.90;;;;;;;12.72;94.10;99817.81;5110978;27;20307;-60
2022/12/23 10:04:26;;;;;;;3.30;2.03;;;;;;;12.72;94.60;99819.63;5106776;27;20663;-60
2022/12/23 10:07:10;;;;;;;8.57;2.43;;;;;;;12.70;95.09;99821.63;5106246;27;20226;-61
2022/12/23 10:09:42;;;;;;;5.73;2.73;;;;;;;12.67;95.53;99817.50;5104152;27;20202;-60
2022/12/23 10:12:18;;;;;;;6.70;2.40;;;;;;;12.72;95.35;99814.31;5105341;27;20731;-59
2022/12/23 10:14:58;;;;;;;6.63;2.63;;;;;;;12.69;95.23;99815.50;5107615;27;20214;-61
2022/12/23 10:17:33;;;;;;;11.80;3.10;;;;;;;12.66;95.44;99817.69;5106669;27;20233;-60
2022/12/23 10:20:04;;;;;;;7.00;3.07;;;;;;;12.70;95.30;99808.34;5105948;27;20277;-61
2022/12/23 10:22:37;;;;;;;10.03;2.93;;;;;;;12.69;95.49;99807.50;5103356;27;20206;-60
2022/12/23 10:25:13;;;;;;;7.90;2.73;;;;;;;12.74;95.31;99804.34;5105611;28;20759;-60
2022/12/23 10:27:43;;;;;;;6.97;3.10;;;;;;;12.74;95.83;99801.69;5103216;28;20738;-60
2022/12/23 10:30:17;;;;;;;7.57;2.73;;;;;;;12.76;95.31;99789.00;5104855;27;20624;-60
2022/12/23 10:33:16;;;;;;;5.70;2.70;;;;;;;12.72;96.63;99796.53;5108815;27;20213;-60
2022/12/23 10:35:52;;;;;;;8.40;2.47;;;;;;;12.75;95.97;99800.66;5107213;27;20246;-60
2022/12/23 10:38:35;;;;;;;4.80;2.10;;;;;;;12.77;95.90;99777.34;5102743;27;20201;-61
2022/12/23 10:41:11;;;;;;;6.67;2.37;;;;;;;12.81;95.99;99782.16;5106954;27;20667;-60
2022/12/23 10:43:58;;;;;;;6.63;2.60;;;;;;;12.80;97.00;99761.03;5109087;27;20333;-60
2022/12/23 10:46:37;;;;;;;8.87;2.67;;;;;;;12.82;96.63;99759.88;5110239;27;20702;-60
2022/12/23 10:49:19;;;;;;;8.00;2.93;;;;;;;12.89;95.73;99765.28;5109861;27;20579;-61
2022/12/23 10:51:50;;;;;;;4.87;2.33;;;;;;;12.87;96.16;99754.00;5107252;27;20673;-60
2022/12/23 10:54:23;;;;;;;7.47;2.87;;;;;;;12.91;96.17;99757.97;5106932;27;20202;-60
2022/12/23 10:56:52;;;;;;;9.57;2.70;;;;;;;12.92;96.19;99750.81;5104603;27;20577;-59
2022/12/23 10:59:25;;;;;;;7.10;2.40;;;;;;;12.80;97.11;99740.59;5109875;27;20788;-60
2022/12/23 11:02:01;;;;;;;9.07;2.90;;;;;;;12.79;98.12;99732.78;5112029;27;20203;-60
2022/12/23 11:04:35;;;;;;;6.40;3.30;;;;;;;12.84;98.10;99733.06;5105707;27;20570;-61
2022/12/23 11:07:04;;;;;;;5.20;3.37;;;;;;;12.76;99.12;99727.81;5106006;27;20233;-60
2022/12/23 11:09:54;;;;;;;9.07;3.60;;;;;;;12.75;99.75;99723.53;5104339;27;20232;-60
2022/12/23 11:12:24;;;;;;;5.77;3.37;;;;;;;12.73;100.00;99718.38;5102471;27;20850;-61
2022/12/23 11:14:55;;;;;;;6.10;3.33;;;;;;;12.77;100.00;99710.84;5100938;28;20221;-60
2022/12/23 11:17:25;;;;;;;7.87;4.37;;;;;;;12.78;100.00;99699.19;5091916;27;20206;-58
2022/12/23 11:20:16;;;;;;;8.80;3.47;;;;;;;12.78;100.00;99685.91;5102024;27;20249;-61
2022/12/23 11:22:49;;;;;;;8.10;3.43;;;;;;;12.79;100.00;99679.56;5109167;27;20795;-64
2022/12/23 11:25:29;;;;;;;6.63;4.10;;;;;;;12.79;100.00;99669.75;5100476;28;20222;-62
2022/12/23 11:28:00;;;;;;;4.70;3.30;;;;;;;12.80;100.00;99667.94;5111246;27;20232;-63
2022/12/23 11:30:29;;;;;;;5.50;3.13;;;;;;;12.82;100.00;99671.25;5107019;27;20240;-63
2022/12/23 11:32:57;;;;;;;6.57;3.53;;;;;;;12.81;100.00;99667.75;5098111;27;20235;-63
2022/12/23 11:35:30;;;;;;;6.63;3.53;;;;;;;12.80;100.00;99670.59;5107911;28;20548;-65
2022/12/23 11:37:59;;;;;;;5.67;3.57;;;;;;;12.79;100.00;99652.97;5105783;27;20206;-63
2022/12/23 11:40:30;;;;;;;4.90;3.10;;;;;;;12.83;100.00;99648.94;5107240;27;20221;-61
2022/12/23 11:43:01;;;;;;;7.20;3.37;;;;;;;12.81;100.00;99642.97;5096823;28;20325;-62
2022/12/23 11:45:34;;;;;;;7.57;3.37;;;;;;;12.80;100.00;99644.00;5102615;28;20202;-62
2022/12/23 11:48:03;;;;;;;10.97;3.90;;;;;;;12.82;100.00;99647.28;5102418;28;20309;-62
2022/12/23 11:50:35;;;;;;;6.80;3.47;;;;;;;12.85;100.00;99641.59;5097579;28;20225;-58
2022/12/23 11:53:19;;;;;;;7.43;3.50;;;;;;;12.89;100.00;99632.25;5103702;27;20214;-62
2022/12/23 11:55:58;;;;;;;5.60;2.97;;;;;;;12.88;100.00;99635.91;5103568;27;20214;-62
2022/12/23 11:58:28;;;;;;;3.80;2.67;;;;;;;12.94;100.00;99629.03;5099281;28;20217;-62
2022/12/23 12:00:59;;;;;;;6.57;2.93;;;;;;;12.91;100.00;99616.94;5102293;27;20301;-62
2022/12/23 12:03:31;;;;;;;6.93;2.20;;;;;;;12.91;100.00;99608.94;5102980;27;20204;-60
2022/12/23 12:06:03;;;;;;;6.50;2.47;;;;;;;12.99;100.00;99600.88;5100275;27;20671;-61
2022/12/23 12:08:33;;;;;;;5.67;2.40;;;;;;;12.92;100.00;99604.47;5101913;27;20226;-61
2022/12/23 12:11:05;;;;;;;6.57;2.47;;;;;;;12.88;100.00;99596.00;5099658;27;20947;-61
2022/12/23 12:13:38;;;;;;;3.73;2.00;;;;;;;12.88;100.00;99598.66;5103842;27;20242;-61
2022/12/23 12:16:19;;;;;;;5.33;2.70;;;;;;;12.94;100.00;99592.59;5103489;27;20219;-62
2022/12/23 12:18:50;;;;;;;3.37;2.17;;;;;;;12.91;100.00;99593.00;5099440;27;20219;-61